EHEH

Eindhoven Airport

Airport
ICAO code
EHEH
IATA Code
EIN
Summary
ICAO Region
EUR
ICAO Territory
Location

Eindhoven, Noord-Brabant

Serving
Eindhoven
Elevation
74 ft
Coordinates
51° 27' 1" N , 5° 22' 28" E
KCC
Metar
Observation
EHEH 260929Z AUTO 20012KT 170V230 9999 -RA SCT015 BKN019 BKN038 12/10 Q1001 WHT TEMPO 21014G25KT 4500 RADZ FEW 010 SCT014 BKN020
Station
Eindhoven
Date/Time
2022-09-26 09:29:00
Wind direction
200°
Wind speed
12 kts
Lowest cloud amount
scattered clouds
Temperature
12°C
Dew point
10°C
Humidity
87%
QNH
1001 hPa
Weather condition
light rain

International airport serving Eindhoven, The Netherlands.

Climatology

Temperate Marine climate/Oceanic climate (Köppen climate classification Cfb). Moderately cool summer and comparatively warm winter with a temperature range of only 14°C. Prevailing south-westerly winds from the Atlantic Ocean.

Runways

Designator Length Width Surface Rops
4/22 3000 45 ASP Yes/Yes

SKYbrary Partners:

Safety knowledge contributed by: